createdAt,value
2019-03-27T00:00:53.416Z,25.50
2019-03-27T00:03:23.351Z,26.50
2019-03-27T00:05:53.327Z,30.48
2019-03-27T00:08:23.313Z,23.05
2019-03-27T00:10:53.415Z,26.20
2019-03-27T00:13:23.308Z,25.60
2019-03-27T00:15:53.221Z,29.95
2019-03-27T00:18:23.165Z,31.52
2019-03-27T00:20:53.199Z,36.25
2019-03-27T00:23:23.160Z,25.20
2019-03-27T00:25:53.142Z,25.95
2019-03-27T00:28:22.982Z,27.20
2019-03-27T00:30:52.833Z,29.20
2019-03-27T00:33:22.819Z,22.65
2019-03-27T00:35:52.781Z,28.20
2019-03-27T00:38:22.855Z,31.57
2019-03-27T00:40:52.784Z,24.12
2019-03-27T00:43:22.733Z,25.48
2019-03-27T00:45:52.706Z,31.10
2019-03-27T00:48:22.621Z,30.00
2019-03-27T00:50:52.546Z,23.70
2019-03-27T00:53:22.410Z,21.07
2019-03-27T00:55:52.307Z,23.90
2019-03-27T00:58:22.274Z,30.08
2019-03-27T01:01:09.115Z,24.50
2019-03-27T01:03:39.062Z,34.73
2019-03-27T01:06:09.001Z,32.65
2019-03-27T01:08:38.941Z,29.63
2019-03-27T01:11:08.915Z,42.50
2019-03-27T01:13:38.782Z,34.13
2019-03-27T01:16:08.671Z,39.53
2019-03-27T01:18:38.674Z,32.15
2019-03-27T01:21:08.577Z,31.62
2019-03-27T01:23:38.395Z,35.55
2019-03-27T01:26:08.306Z,29.12
2019-03-27T01:28:38.211Z,27.62
2019-03-27T01:31:10.387Z,30.43
2019-03-27T01:33:40.354Z,32.53
2019-03-27T01:36:10.362Z,32.50
2019-03-27T01:38:40.320Z,36.00
2019-03-27T01:41:10.289Z,37.42
2019-03-27T01:43:40.159Z,24.45
2019-03-27T01:46:10.003Z,32.10
2019-03-27T01:48:40.008Z,39.73
2019-03-27T01:51:09.944Z,33.13
2019-03-27T01:53:39.913Z,30.82
2019-03-27T01:56:09.816Z,37.15
2019-03-27T01:58:39.725Z,32.38
2019-03-27T02:01:09.714Z,32.03
2019-03-27T02:03:39.726Z,38.25
2019-03-27T02:06:09.650Z,37.23
2019-03-27T02:08:39.525Z,34.75
2019-03-27T02:11:12.216Z,34.08
2019-03-27T02:13:42.129Z,36.48
2019-03-27T02:16:12.105Z,37.95
2019-03-27T02:18:42.009Z,37.33
2019-03-27T02:21:12.031Z,38.63
2019-03-27T02:23:41.936Z,41.48
2019-03-27T02:26:11.836Z,34.15
2019-03-27T02:28:41.667Z,31.85
2019-03-27T02:31:11.588Z,39.18
2019-03-27T02:33:41.491Z,36.77
2019-03-27T02:36:11.489Z,40.80
2019-03-27T02:38:41.463Z,32.20
2019-03-27T02:41:11.347Z,40.83
2019-03-27T02:43:41.595Z,39.53
2019-03-27T02:46:23.818Z,31.90
2019-03-27T02:48:43.073Z,34.00
2019-03-27T02:51:13.040Z,43.90
2019-03-27T02:53:43.027Z,35.68
2019-03-27T02:56:12.944Z,32.85
2019-03-27T02:58:42.893Z,33.35
2019-03-27T03:01:12.829Z,39.75
2019-03-27T03:03:42.745Z,32.08
2019-03-27T03:06:12.636Z,30.70
2019-03-27T03:08:42.516Z,36.35
2019-03-27T03:11:12.454Z,35.52
2019-03-27T03:13:42.413Z,42.75
2019-03-27T03:16:41.959Z,38.08
2019-03-27T03:19:02.809Z,42.73
2019-03-27T03:21:33.249Z,36.65
2019-03-27T03:24:03.156Z,36.77
2019-03-27T03:26:33.035Z,33.33
2019-03-27T03:29:03.068Z,35.55
2019-03-27T03:31:32.994Z,37.20
2019-03-27T03:34:04.219Z,39.67
2019-03-27T03:36:34.100Z,36.28
2019-03-27T03:39:05.485Z,37.58
2019-03-27T03:41:35.422Z,39.00
2019-03-27T03:44:05.379Z,43.83
2019-03-27T03:46:35.274Z,47.55
2019-03-27T03:49:05.272Z,48.33
2019-03-27T03:51:35.514Z,56.98
2019-03-27T03:54:05.864Z,41.05
2019-03-27T03:56:38.485Z,38.05
2019-03-27T03:59:09.788Z,41.13
2019-03-27T04:01:41.880Z,42.43
2019-03-27T04:04:13.787Z,43.52
2019-03-27T04:06:43.672Z,45.43
2019-03-27T04:09:13.608Z,46.83
2019-03-27T04:11:43.446Z,46.65
2019-03-27T04:14:13.282Z,37.85
2019-03-27T04:16:43.222Z,49.53
2019-03-27T04:19:13.094Z,42.90
2019-03-27T04:21:43.005Z,36.28
2019-03-27T04:24:12.895Z,33.28
2019-03-27T04:26:42.847Z,35.65
2019-03-27T04:29:12.818Z,35.65
2019-03-27T04:31:42.751Z,39.40
2019-03-27T04:34:12.654Z,44.23
2019-03-27T04:36:42.591Z,38.88
2019-03-27T04:39:12.601Z,47.43
2019-03-27T04:41:42.625Z,39.10
2019-03-27T04:44:12.490Z,42.23
2019-03-27T04:46:42.460Z,31.65
2019-03-27T04:49:12.411Z,40.55
2019-03-27T04:51:42.328Z,40.98
2019-03-27T04:54:12.322Z,60.35
2019-03-27T04:56:42.320Z,53.20
2019-03-27T04:59:12.254Z,44.38
2019-03-27T05:01:42.245Z,41.90
2019-03-27T05:04:12.480Z,43.05
2019-03-27T05:06:42.363Z,44.60
2019-03-27T05:09:12.322Z,39.67
2019-03-27T05:11:42.267Z,53.52
2019-03-27T05:14:12.146Z,49.20
2019-03-27T05:16:42.052Z,42.90
2019-03-27T05:19:13.783Z,55.83
2019-03-27T05:21:44.003Z,48.98
2019-03-27T05:24:13.930Z,47.38
2019-03-27T05:26:43.929Z,50.33
2019-03-27T05:29:15.368Z,48.78
2019-03-27T05:31:45.220Z,48.95
2019-03-27T05:34:15.089Z,52.25
2019-03-27T05:36:44.982Z,43.80
2019-03-27T05:39:14.958Z,55.92
2019-03-27T05:41:45.006Z,56.42
2019-03-27T05:44:14.978Z,37.93
2019-03-27T05:46:44.946Z,49.65
2019-03-27T05:49:14.806Z,62.45
2019-03-27T05:51:44.768Z,44.67
2019-03-27T05:54:14.802Z,55.60
2019-03-27T05:56:44.831Z,55.55
2019-03-27T05:59:14.820Z,55.90
2019-03-27T06:01:44.730Z,46.48
2019-03-27T06:04:14.634Z,46.05
2019-03-27T06:06:44.603Z,47.23
2019-03-27T06:09:14.598Z,55.50
2019-03-27T06:11:44.485Z,49.03
2019-03-27T06:14:14.439Z,51.08
2019-03-27T06:16:44.425Z,59.18
2019-03-27T06:19:14.389Z,55.60
2019-03-27T06:21:44.366Z,54.00
2019-03-27T06:24:14.278Z,45.95
2019-03-27T06:26:44.224Z,51.85
2019-03-27T06:29:15.864Z,53.52
2019-03-27T06:31:45.734Z,57.78
2019-03-27T06:34:15.645Z,53.90
2019-03-27T06:36:45.488Z,66.67
2019-03-27T06:39:15.408Z,58.98
2019-03-27T06:41:45.367Z,56.70
2019-03-27T06:44:15.306Z,63.23
2019-03-27T06:46:45.163Z,62.62
2019-03-27T06:49:15.029Z,66.12
2019-03-27T06:51:44.948Z,52.43
2019-03-27T06:54:14.807Z,62.70
2019-03-27T06:56:44.763Z,67.40
2019-03-27T06:59:14.703Z,69.05
2019-03-27T07:01:44.531Z,64.07
2019-03-27T07:04:14.355Z,58.17
2019-03-27T07:06:44.231Z,57.50
2019-03-27T07:09:14.214Z,60.40
2019-03-27T07:11:44.155Z,65.87
2019-03-27T07:14:14.070Z,64.30
2019-03-27T07:16:43.947Z,64.27
2019-03-27T07:19:13.883Z,57.78
2019-03-27T07:21:43.780Z,63.55
2019-03-27T07:24:13.766Z,67.15
2019-03-27T07:26:43.684Z,60.80
2019-03-27T07:29:13.643Z,55.65
2019-03-27T07:31:43.567Z,55.05
2019-03-27T07:34:13.521Z,73.22
2019-03-27T07:36:43.500Z,59.73
2019-03-27T07:39:13.424Z,56.83
2019-03-27T07:41:43.363Z,57.35
2019-03-27T07:44:13.323Z,68.87
2019-03-27T07:46:43.292Z,53.25
2019-03-27T07:49:13.200Z,65.72
2019-03-27T07:51:43.266Z,56.30
2019-03-27T07:54:13.186Z,53.90
2019-03-27T07:56:43.056Z,51.00
2019-03-27T07:59:12.988Z,55.00
2019-03-27T08:01:42.908Z,40.63
2019-03-27T08:04:14.549Z,43.68
2019-03-27T08:06:44.566Z,39.48
2019-03-27T08:09:14.477Z,40.95
2019-03-27T08:11:44.343Z,41.45
2019-03-27T08:14:14.265Z,29.40
2019-03-27T08:16:44.219Z,19.42
2019-03-27T08:19:14.197Z,25.32
2019-03-27T08:21:44.095Z,16.95
2019-03-27T08:24:14.053Z,13.55
2019-03-27T08:26:44.006Z,18.12
2019-03-27T08:29:14.033Z,15.88
2019-03-27T08:31:44.004Z,19.23
2019-03-27T08:34:13.991Z,21.27
2019-03-27T08:36:43.859Z,17.30
2019-03-27T08:39:13.789Z,19.82
2019-03-27T08:41:45.973Z,17.77
2019-03-27T08:44:15.989Z,31.02
2019-03-27T08:46:45.983Z,25.85
2019-03-27T08:49:21.777Z,30.85
2019-03-27T08:51:47.590Z,17.52
2019-03-27T08:54:17.478Z,24.45
2019-03-27T08:56:47.513Z,26.90
2019-03-27T08:59:17.463Z,19.55
2019-03-27T09:01:47.426Z,19.92
2019-03-27T09:04:17.406Z,24.67
2019-03-27T09:06:47.303Z,25.10
2019-03-27T09:09:17.331Z,21.97
2019-03-27T09:11:47.253Z,21.42
2019-03-27T09:14:17.288Z,22.80
2019-03-27T09:16:47.318Z,14.65
2019-03-27T09:19:17.289Z,16.80
2019-03-27T09:21:47.273Z,16.65
2019-03-27T09:24:17.247Z,17.85
2019-03-27T09:26:47.253Z,9.33
2019-03-27T09:29:17.250Z,12.15
2019-03-27T09:31:47.221Z,13.98
2019-03-27T09:34:17.834Z,16.45
2019-03-27T09:36:47.747Z,11.88
2019-03-27T09:39:17.706Z,14.33
2019-03-27T09:41:47.794Z,20.62
2019-03-27T09:44:17.742Z,12.03
2019-03-27T09:46:47.717Z,11.45
2019-03-27T09:49:17.906Z,10.93
2019-03-27T09:51:47.989Z,16.95
2019-03-27T09:54:17.903Z,19.30
2019-03-27T09:56:47.858Z,14.30
2019-03-27T09:59:17.812Z,14.53
2019-03-27T10:01:47.699Z,16.17
2019-03-27T10:04:17.630Z,15.83
2019-03-27T10:06:47.586Z,12.30
2019-03-27T10:09:17.599Z,7.83
2019-03-27T10:11:47.541Z,10.07
2019-03-27T10:14:17.482Z,14.10
2019-03-27T10:16:47.561Z,11.03
2019-03-27T10:19:17.546Z,8.20
2019-03-27T10:21:47.464Z,10.40
2019-03-27T10:24:17.420Z,12.63
2019-03-27T10:26:47.242Z,8.77
2019-03-27T10:29:17.202Z,8.18
2019-03-27T10:31:47.143Z,8.63
2019-03-27T10:34:17.052Z,8.95
2019-03-27T10:36:46.910Z,6.47
2019-03-27T10:39:16.850Z,5.63
2019-03-27T10:41:46.690Z,4.50
2019-03-27T10:44:17.612Z,6.17
2019-03-27T10:46:47.847Z,9.83
2019-03-27T10:49:17.833Z,6.10
2019-03-27T10:51:47.783Z,13.10
2019-03-27T10:54:17.793Z,4.00
2019-03-27T10:56:47.771Z,3.97
2019-03-27T10:59:17.835Z,11.63
2019-03-27T11:01:47.777Z,4.27
2019-03-27T11:04:17.688Z,4.17
2019-03-27T11:06:47.637Z,5.07
2019-03-27T11:09:17.500Z,2.97
2019-03-27T11:11:47.523Z,3.02
2019-03-27T11:14:17.474Z,5.62
2019-03-27T11:16:47.572Z,4.33
2019-03-27T11:19:17.525Z,6.65
2019-03-27T11:21:47.524Z,4.22
2019-03-27T11:24:17.495Z,6.67
2019-03-27T11:26:47.439Z,6.17
2019-03-27T11:29:17.351Z,14.25
2019-03-27T11:31:47.308Z,5.58
2019-03-27T11:34:17.246Z,5.37
2019-03-27T11:36:47.330Z,10.08
2019-03-27T11:39:17.254Z,8.15
2019-03-27T11:41:47.176Z,8.88
2019-03-27T11:44:17.105Z,5.33
2019-03-27T11:46:46.986Z,5.55
2019-03-27T11:49:16.856Z,7.55
2019-03-27T11:51:46.716Z,7.55
2019-03-27T11:54:16.806Z,10.98
2019-03-27T11:56:46.768Z,9.00
2019-03-27T11:59:16.790Z,7.00
2019-03-27T12:01:46.678Z,9.88
2019-03-27T12:04:16.629Z,7.60
2019-03-27T12:06:46.563Z,5.92
2019-03-27T12:09:16.532Z,8.73
2019-03-27T12:11:46.467Z,8.13
2019-03-27T12:14:16.395Z,5.83
2019-03-27T12:16:46.349Z,10.73
2019-03-27T12:19:16.199Z,7.60
2019-03-27T12:21:46.046Z,12.37
2019-03-27T12:24:16.009Z,7.75
2019-03-27T12:26:45.959Z,8.93
2019-03-27T12:29:18.178Z,5.67
2019-03-27T12:31:47.389Z,5.12
2019-03-27T12:34:17.402Z,6.08
2019-03-27T12:36:47.348Z,8.40
2019-03-27T12:39:17.284Z,7.53
2019-03-27T12:41:47.162Z,6.05
2019-03-27T12:44:17.211Z,5.62
2019-03-27T12:46:47.179Z,4.10
2019-03-27T12:49:17.127Z,4.67
2019-03-27T12:51:47.075Z,3.70
2019-03-27T12:54:16.962Z,5.35
2019-03-27T12:56:46.906Z,5.87
2019-03-27T12:59:16.884Z,5.87
2019-03-27T13:01:46.938Z,5.03
2019-03-27T13:04:16.884Z,8.05
2019-03-27T13:06:46.816Z,10.82
2019-03-27T13:09:16.719Z,5.33
2019-03-27T13:11:46.732Z,6.60
2019-03-27T13:14:16.673Z,5.22
2019-03-27T13:16:46.601Z,4.95
2019-03-27T13:19:16.434Z,5.55
2019-03-27T13:21:46.345Z,6.53
2019-03-27T13:24:16.247Z,5.90
2019-03-27T13:26:47.464Z,6.85
2019-03-27T13:29:17.458Z,4.58
2019-03-27T13:31:47.302Z,4.58
2019-03-27T13:34:17.293Z,7.42
2019-03-27T13:36:48.425Z,6.83
2019-03-27T13:39:18.451Z,8.10
2019-03-27T13:41:48.387Z,5.35
2019-03-27T13:44:18.274Z,4.47
2019-03-27T13:46:48.292Z,4.87
2019-03-27T13:49:18.318Z,8.85
2019-03-27T13:51:48.460Z,5.95
2019-03-27T13:54:18.452Z,4.40
2019-03-27T13:56:48.434Z,6.35
2019-03-27T13:59:18.323Z,3.92
2019-03-27T14:01:48.275Z,4.75
2019-03-27T14:04:18.244Z,9.18
2019-03-27T14:06:48.174Z,4.75
2019-03-27T14:09:18.248Z,5.08
2019-03-27T14:11:48.177Z,4.60
2019-03-27T14:14:19.823Z,4.40
2019-03-27T14:16:49.741Z,5.72
2019-03-27T14:19:19.678Z,4.92
2019-03-27T14:21:54.993Z,5.78
2019-03-27T14:24:21.376Z,10.10
2019-03-27T14:26:51.339Z,8.23
2019-03-27T14:29:21.320Z,6.03
2019-03-27T14:31:51.228Z,6.83
2019-03-27T14:34:21.217Z,5.05
2019-03-27T14:36:51.186Z,8.00
2019-03-27T14:39:21.174Z,7.15
2019-03-27T14:41:51.168Z,4.58
2019-03-27T14:44:21.173Z,5.87
2019-03-27T14:46:51.193Z,6.85
2019-03-27T14:49:21.188Z,6.95
2019-03-27T14:51:51.204Z,7.80
2019-03-27T14:54:21.174Z,7.80
2019-03-27T14:56:51.126Z,7.12
2019-03-27T14:59:21.065Z,7.33
2019-03-27T15:01:51.070Z,7.08
2019-03-27T15:04:21.081Z,7.30
2019-03-27T15:06:51.070Z,10.48
2019-03-27T15:09:21.232Z,7.47
2019-03-27T15:11:51.249Z,7.87
2019-03-27T15:14:21.285Z,8.88
2019-03-27T15:16:51.174Z,7.03
2019-03-27T15:19:21.192Z,13.65
2019-03-27T15:21:51.141Z,7.72
2019-03-27T15:24:21.273Z,7.33
2019-03-27T15:26:51.298Z,7.00
2019-03-27T15:29:21.272Z,7.05
2019-03-27T15:31:51.355Z,5.00
2019-03-27T15:34:21.315Z,6.30
2019-03-27T15:36:51.434Z,9.73
2019-03-27T15:39:21.369Z,6.50
2019-03-27T15:41:51.248Z,5.42
2019-03-27T15:44:21.232Z,5.87
2019-03-27T15:46:51.250Z,4.33
2019-03-27T15:49:21.290Z,9.03
2019-03-27T15:51:51.237Z,6.33
2019-03-27T15:54:21.268Z,4.25
2019-03-27T15:56:51.254Z,7.92
2019-03-27T15:59:21.324Z,5.08
2019-03-27T16:01:51.260Z,10.48
2019-03-27T16:04:21.184Z,7.65
2019-03-27T16:06:51.130Z,9.28
2019-03-27T16:09:21.349Z,6.95
2019-03-27T16:11:51.298Z,5.08
2019-03-27T16:14:21.265Z,5.75
2019-03-27T16:17:06.887Z,7.08
2019-03-27T16:19:22.980Z,5.83
2019-03-27T16:21:53.113Z,9.48
2019-03-27T16:24:23.059Z,7.75
2019-03-27T16:27:03.803Z,5.80
2019-03-27T16:29:24.825Z,13.70
2019-03-27T16:31:54.827Z,9.80
2019-03-27T16:34:25.385Z,8.10
2019-03-27T16:36:55.645Z,6.08
2019-03-27T16:39:25.826Z,8.30
2019-03-27T16:41:55.883Z,12.37
2019-03-27T16:44:25.911Z,7.42
2019-03-27T16:46:56.013Z,13.30
2019-03-27T16:49:26.018Z,7.45
2019-03-27T16:51:56.513Z,12.05
2019-03-27T16:54:26.658Z,15.50
2019-03-27T16:56:56.694Z,9.15
2019-03-27T16:59:26.719Z,8.10
2019-03-27T17:01:56.710Z,8.15
2019-03-27T17:04:26.712Z,9.23
2019-03-27T17:06:56.704Z,8.53
2019-03-27T17:09:29.083Z,10.48
2019-03-27T17:11:58.968Z,6.60
2019-03-27T17:14:29.055Z,7.62
2019-03-27T17:16:59.142Z,9.55
2019-03-27T17:19:29.471Z,13.65
2019-03-27T17:21:59.523Z,7.95
2019-03-27T17:24:29.547Z,15.05
2019-03-27T17:26:59.483Z,13.93
2019-03-27T17:29:29.617Z,12.90
2019-03-27T17:31:59.677Z,11.95
2019-03-27T17:34:29.638Z,9.80
2019-03-27T17:36:59.619Z,9.98
2019-03-27T17:39:29.669Z,12.23
2019-03-27T17:41:59.631Z,7.60
2019-03-27T17:44:30.611Z,11.70
2019-03-27T17:47:00.584Z,16.42
2019-03-27T17:49:30.554Z,12.82
2019-03-27T17:52:00.688Z,9.03
2019-03-27T17:54:30.809Z,14.15
2019-03-27T17:57:00.780Z,12.50
2019-03-27T17:59:30.898Z,9.33
2019-03-27T18:02:03.996Z,17.20
2019-03-27T18:04:33.999Z,17.73
2019-03-27T18:07:04.035Z,20.70
2019-03-27T18:09:34.021Z,38.42
2019-03-27T18:12:04.019Z,29.87
2019-03-27T18:14:34.015Z,29.75
2019-03-27T18:17:04.066Z,20.08
2019-03-27T18:19:34.051Z,11.65
2019-03-27T18:22:08.082Z,13.08
2019-03-27T18:24:35.865Z,16.20
2019-03-27T18:27:05.944Z,12.80
2019-03-27T18:29:35.944Z,14.45
2019-03-27T18:32:06.049Z,10.08
2019-03-27T18:34:36.114Z,9.23
2019-03-27T18:37:06.148Z,12.33
2019-03-27T18:39:36.086Z,7.28
2019-03-27T18:42:06.259Z,16.42
2019-03-27T18:44:36.382Z,14.95
2019-03-27T18:47:06.450Z,18.57
2019-03-27T18:49:36.620Z,16.55
2019-03-27T18:52:06.595Z,8.80
2019-03-27T18:54:36.997Z,13.43
2019-03-27T18:57:07.209Z,16.27
2019-03-27T18:59:38.475Z,13.25
2019-03-27T19:02:08.508Z,10.68
2019-03-27T19:04:38.506Z,19.62
2019-03-27T19:07:08.610Z,18.00
2019-03-27T19:09:38.671Z,16.05
2019-03-27T19:12:08.736Z,19.62
2019-03-27T19:14:38.852Z,15.65
2019-03-27T19:17:08.885Z,14.47
2019-03-27T19:19:39.022Z,14.28
2019-03-27T19:22:09.150Z,20.92
2019-03-27T19:24:39.135Z,15.78
2019-03-27T19:27:09.043Z,12.45
2019-03-27T19:29:39.205Z,9.35
2019-03-27T19:32:09.214Z,10.90
2019-03-27T19:34:39.310Z,7.85
2019-03-27T19:37:09.460Z,15.83
2019-03-27T19:39:39.608Z,14.30
2019-03-27T19:42:09.783Z,12.58
2019-03-27T19:44:40.055Z,12.28
2019-03-27T19:47:10.136Z,13.48
2019-03-27T19:49:40.386Z,12.80
2019-03-27T19:52:10.543Z,15.60
2019-03-27T19:54:40.563Z,15.95
2019-03-27T19:57:10.515Z,18.35
2019-03-27T19:59:40.669Z,9.38
2019-03-27T20:02:11.150Z,14.05
2019-03-27T20:04:41.233Z,17.25
2019-03-27T20:07:11.298Z,15.58
2019-03-27T20:09:42.938Z,18.12
2019-03-27T20:12:13.025Z,15.80
2019-03-27T20:14:43.094Z,13.65
2019-03-27T20:17:13.158Z,17.73
2019-03-27T20:19:43.265Z,14.50
2019-03-27T20:22:13.340Z,15.98
2019-03-27T20:24:43.499Z,14.63
2019-03-27T20:27:13.637Z,11.43
2019-03-27T20:29:46.425Z,16.25
2019-03-27T20:32:15.413Z,21.45
2019-03-27T20:34:45.392Z,19.73
2019-03-27T20:37:15.330Z,19.02
2019-03-27T20:39:45.476Z,23.20
2019-03-27T20:42:15.570Z,21.85
2019-03-27T20:44:45.620Z,21.57
2019-03-27T20:47:15.613Z,9.33
2019-03-27T20:49:45.530Z,9.40
2019-03-27T20:52:15.830Z,10.95
2019-03-27T20:54:55.088Z,16.27
2019-03-27T20:57:17.564Z,20.82
2019-03-27T20:59:47.702Z,21.02
2019-03-27T21:02:20.226Z,20.15
2019-03-27T21:04:49.881Z,16.48
2019-03-27T21:07:19.985Z,15.23
2019-03-27T21:09:51.907Z,18.32
2019-03-27T21:12:21.639Z,16.50
2019-03-27T21:14:51.861Z,16.73
2019-03-27T21:17:22.141Z,15.93
2019-03-27T21:19:52.213Z,19.45
2019-03-27T21:22:22.086Z,16.07
2019-03-27T21:24:52.024Z,17.52
2019-03-27T21:27:22.144Z,14.87
2019-03-27T21:29:52.084Z,20.62
2019-03-27T21:32:22.044Z,11.35
2019-03-27T21:34:52.207Z,19.30
2019-03-27T21:37:22.218Z,18.95
2019-03-27T21:39:52.297Z,22.48
2019-03-27T21:42:22.238Z,21.77
2019-03-27T21:44:52.223Z,14.75
2019-03-27T21:47:22.356Z,14.80
2019-03-27T21:49:52.310Z,18.87
2019-03-27T21:52:22.268Z,14.23
2019-03-27T21:54:52.223Z,21.48
2019-03-27T21:57:22.489Z,22.05
2019-03-27T21:59:52.389Z,19.07
2019-03-27T22:02:22.646Z,16.77
2019-03-27T22:04:52.566Z,23.27
2019-03-27T22:07:22.507Z,16.97
2019-03-27T22:09:52.443Z,16.55
2019-03-27T22:12:22.458Z,17.15
2019-03-27T22:14:52.417Z,16.12
2019-03-27T22:17:22.334Z,20.60
2019-03-27T22:19:52.284Z,17.60
2019-03-27T22:22:22.214Z,11.05
2019-03-27T22:24:52.166Z,14.83
2019-03-27T22:27:22.115Z,14.30
2019-03-27T22:29:52.133Z,13.32
2019-03-27T22:32:22.043Z,23.70
2019-03-27T22:34:52.156Z,18.95
2019-03-27T22:37:22.068Z,19.80
2019-03-27T22:39:52.025Z,23.10
2019-03-27T22:42:21.943Z,21.73
2019-03-27T22:44:51.928Z,21.05
2019-03-27T22:47:21.811Z,11.75
2019-03-27T22:49:51.731Z,15.48
2019-03-27T22:52:21.736Z,16.55
2019-03-27T22:54:51.710Z,22.37
2019-03-27T22:57:21.638Z,17.32
2019-03-27T22:59:51.528Z,15.35
2019-03-27T23:02:21.830Z,16.70
2019-03-27T23:04:51.740Z,16.55
2019-03-27T23:07:21.612Z,17.00
2019-03-27T23:09:51.694Z,16.00
2019-03-27T23:12:21.582Z,13.20
2019-03-27T23:14:51.957Z,10.58
2019-03-27T23:17:21.854Z,8.35
2019-03-27T23:19:51.734Z,10.70
2019-03-27T23:22:21.705Z,9.05
2019-03-27T23:24:51.696Z,8.50
2019-03-27T23:27:21.594Z,7.92
2019-03-27T23:29:51.572Z,9.73
2019-03-27T23:32:21.712Z,12.73
2019-03-27T23:34:51.684Z,12.00
2019-03-27T23:37:21.609Z,10.95
2019-03-27T23:39:51.467Z,17.67
2019-03-27T23:42:21.368Z,13.65
2019-03-27T23:44:51.297Z,14.65
2019-03-27T23:47:21.189Z,14.40
2019-03-27T23:49:51.210Z,16.57
2019-03-27T23:52:21.149Z,17.48
2019-03-27T23:54:51.104Z,13.68
2019-03-27T23:57:20.994Z,11.80
2019-03-27T23:59:50.897Z,12.95
